sensor_id;sensor_type;location;lat;lon;timestamp;P1;durP1;ratioP1;P2;durP2;ratioP2
15936;SDS011;9163;48.818;8.976;2023-07-30T00:00:39;3.20;;;2.60;;
15936;SDS011;9163;48.818;8.976;2023-07-30T00:03:06;3.27;;;2.00;;
15936;SDS011;9163;48.818;8.976;2023-07-30T00:05:34;6.63;;;2.03;;
15936;SDS011;9163;48.818;8.976;2023-07-30T00:08:01;1.90;;;1.60;;
15936;SDS011;9163;48.818;8.976;2023-07-30T00:10:28;2.90;;;1.87;;
15936;SDS011;9163;48.818;8.976;2023-07-30T00:12:57;2.43;;;1.70;;
15936;SDS011;9163;48.818;8.976;2023-07-30T00:15:24;3.93;;;1.70;;
15936;SDS011;9163;48.818;8.976;2023-07-30T00:17:51;3.27;;;2.30;;
15936;SDS011;9163;48.818;8.976;2023-07-30T00:20:18;4.77;;;2.23;;
15936;SDS011;9163;48.818;8.976;2023-07-30T00:22:46;3.47;;;1.90;;
15936;SDS011;9163;48.818;8.976;2023-07-30T00:25:13;2.03;;;1.80;;
15936;SDS011;9163;48.818;8.976;2023-07-30T00:27:40;2.03;;;1.60;;
15936;SDS011;9163;48.818;8.976;2023-07-30T00:30:10;2.43;;;1.60;;
15936;SDS011;9163;48.818;8.976;2023-07-30T00:32:37;2.37;;;1.73;;
15936;SDS011;9163;48.818;8.976;2023-07-30T00:35:08;4.77;;;1.93;;
15936;SDS011;9163;48.818;8.976;2023-07-30T00:37:36;2.27;;;1.70;;
15936;SDS011;9163;48.818;8.976;2023-07-30T00:40:03;2.83;;;1.87;;
15936;SDS011;9163;48.818;8.976;2023-07-30T00:42:31;3.13;;;1.80;;
15936;SDS011;9163;48.818;8.976;2023-07-30T00:44:59;1.97;;;1.50;;
15936;SDS011;9163;48.818;8.976;2023-07-30T00:47:27;2.43;;;1.50;;
15936;SDS011;9163;48.818;8.976;2023-07-30T00:49:54;2.20;;;1.60;;
15936;SDS011;9163;48.818;8.976;2023-07-30T00:52:22;2.70;;;1.70;;
15936;SDS011;9163;48.818;8.976;2023-07-30T00:54:51;1.93;;;1.40;;
15936;SDS011;9163;48.818;8.976;2023-07-30T00:57:18;2.57;;;1.50;;
15936;SDS011;9163;48.818;8.976;2023-07-30T00:59:46;2.93;;;1.70;;
15936;SDS011;9163;48.818;8.976;2023-07-30T01:02:15;3.10;;;1.83;;
15936;SDS011;9163;48.818;8.976;2023-07-30T01:04:44;3.03;;;2.00;;
15936;SDS011;9163;48.818;8.976;2023-07-30T01:07:11;2.20;;;1.80;;
15936;SDS011;9163;48.818;8.976;2023-07-30T01:09:39;2.80;;;1.80;;
15936;SDS011;9163;48.818;8.976;2023-07-30T01:12:06;2.87;;;1.90;;
15936;SDS011;9163;48.818;8.976;2023-07-30T01:14:34;2.90;;;1.63;;
15936;SDS011;9163;48.818;8.976;2023-07-30T01:17:03;1.90;;;1.50;;
15936;SDS011;9163;48.818;8.976;2023-07-30T01:19:30;2.20;;;1.57;;
15936;SDS011;9163;48.818;8.976;2023-07-30T01:21:59;1.97;;;1.60;;
15936;SDS011;9163;48.818;8.976;2023-07-30T01:24:26;2.03;;;1.50;;
15936;SDS011;9163;48.818;8.976;2023-07-30T01:26:55;1.77;;;1.37;;
15936;SDS011;9163;48.818;8.976;2023-07-30T01:29:27;1.70;;;1.33;;
15936;SDS011;9163;48.818;8.976;2023-07-30T01:32:02;1.97;;;1.50;;
15936;SDS011;9163;48.818;8.976;2023-07-30T01:34:34;2.87;;;1.40;;
15936;SDS011;9163;48.818;8.976;2023-07-30T01:37:04;2.13;;;1.50;;
15936;SDS011;9163;48.818;8.976;2023-07-30T01:39:34;2.77;;;1.57;;
15936;SDS011;9163;48.818;8.976;2023-07-30T01:42:04;2.43;;;1.40;;
15936;SDS011;9163;48.818;8.976;2023-07-30T01:44:31;2.47;;;1.40;;
15936;SDS011;9163;48.818;8.976;2023-07-30T01:46:58;2.10;;;1.60;;
15936;SDS011;9163;48.818;8.976;2023-07-30T01:49:25;1.50;;;1.20;;
15936;SDS011;9163;48.818;8.976;2023-07-30T01:51:53;1.33;;;1.23;;
15936;SDS011;9163;48.818;8.976;2023-07-30T01:54:21;2.87;;;1.67;;
15936;SDS011;9163;48.818;8.976;2023-07-30T01:56:48;2.37;;;1.50;;
15936;SDS011;9163;48.818;8.976;2023-07-30T01:59:16;1.63;;;1.40;;
15936;SDS011;9163;48.818;8.976;2023-07-30T02:01:43;2.13;;;1.50;;
15936;SDS011;9163;48.818;8.976;2023-07-30T02:04:10;1.70;;;1.30;;
15936;SDS011;9163;48.818;8.976;2023-07-30T02:06:37;1.93;;;1.50;;
15936;SDS011;9163;48.818;8.976;2023-07-30T02:09:05;2.67;;;1.53;;
15936;SDS011;9163;48.818;8.976;2023-07-30T02:11:33;2.23;;;1.47;;
15936;SDS011;9163;48.818;8.976;2023-07-30T02:14:00;1.70;;;1.60;;
15936;SDS011;9163;48.818;8.976;2023-07-30T02:16:28;2.10;;;1.90;;
15936;SDS011;9163;48.818;8.976;2023-07-30T02:18:55;2.70;;;1.80;;
15936;SDS011;9163;48.818;8.976;2023-07-30T02:21:22;2.77;;;1.47;;
15936;SDS011;9163;48.818;8.976;2023-07-30T02:23:49;2.67;;;1.70;;
15936;SDS011;9163;48.818;8.976;2023-07-30T02:26:17;3.40;;;1.80;;
15936;SDS011;9163;48.818;8.976;2023-07-30T02:28:45;2.80;;;2.00;;
15936;SDS011;9163;48.818;8.976;2023-07-30T02:31:12;1.93;;;1.67;;
15936;SDS011;9163;48.818;8.976;2023-07-30T02:33:40;2.37;;;2.00;;
15936;SDS011;9163;48.818;8.976;2023-07-30T02:36:07;2.90;;;2.20;;
15936;SDS011;9163;48.818;8.976;2023-07-30T02:38:34;3.13;;;2.30;;
15936;SDS011;9163;48.818;8.976;2023-07-30T02:41:01;3.63;;;2.40;;
15936;SDS011;9163;48.818;8.976;2023-07-30T02:43:29;3.47;;;2.50;;
15936;SDS011;9163;48.818;8.976;2023-07-30T02:45:57;3.30;;;2.30;;
15936;SDS011;9163;48.818;8.976;2023-07-30T02:48:24;2.80;;;2.10;;
15936;SDS011;9163;48.818;8.976;2023-07-30T02:50:52;2.90;;;2.23;;
15936;SDS011;9163;48.818;8.976;2023-07-30T02:53:19;2.90;;;2.17;;
15936;SDS011;9163;48.818;8.976;2023-07-30T02:55:46;2.70;;;1.90;;
15936;SDS011;9163;48.818;8.976;2023-07-30T02:58:13;3.53;;;2.03;;
15936;SDS011;9163;48.818;8.976;2023-07-30T03:00:40;2.00;;;1.80;;
15936;SDS011;9163;48.818;8.976;2023-07-30T03:03:09;4.33;;;2.20;;
15936;SDS011;9163;48.818;8.976;2023-07-30T03:05:36;3.60;;;1.80;;
15936;SDS011;9163;48.818;8.976;2023-07-30T03:08:03;2.10;;;1.80;;
15936;SDS011;9163;48.818;8.976;2023-07-30T03:10:31;3.30;;;1.97;;
15936;SDS011;9163;48.818;8.976;2023-07-30T03:12:58;2.93;;;1.83;;
15936;SDS011;9163;48.818;8.976;2023-07-30T03:15:26;2.30;;;1.90;;
15936;SDS011;9163;48.818;8.976;2023-07-30T03:17:54;3.13;;;1.90;;
15936;SDS011;9163;48.818;8.976;2023-07-30T03:20:22;3.17;;;1.90;;
15936;SDS011;9163;48.818;8.976;2023-07-30T03:22:50;3.40;;;1.80;;
15936;SDS011;9163;48.818;8.976;2023-07-30T03:25:17;4.50;;;1.90;;
15936;SDS011;9163;48.818;8.976;2023-07-30T03:27:45;2.50;;;1.97;;
15936;SDS011;9163;48.818;8.976;2023-07-30T03:30:12;1.87;;;1.73;;
15936;SDS011;9163;48.818;8.976;2023-07-30T03:32:40;2.50;;;1.60;;
15936;SDS011;9163;48.818;8.976;2023-07-30T03:35:07;2.17;;;1.93;;
15936;SDS011;9163;48.818;8.976;2023-07-30T03:37:36;3.03;;;2.13;;
15936;SDS011;9163;48.818;8.976;2023-07-30T03:40:04;3.63;;;1.90;;
15936;SDS011;9163;48.818;8.976;2023-07-30T03:42:31;3.70;;;2.13;;
15936;SDS011;9163;48.818;8.976;2023-07-30T03:44:59;4.47;;;2.10;;
15936;SDS011;9163;48.818;8.976;2023-07-30T03:47:26;4.20;;;2.20;;
15936;SDS011;9163;48.818;8.976;2023-07-30T03:49:53;4.53;;;2.40;;
15936;SDS011;9163;48.818;8.976;2023-07-30T03:52:20;3.67;;;2.20;;
15936;SDS011;9163;48.818;8.976;2023-07-30T03:54:49;2.87;;;2.17;;
15936;SDS011;9163;48.818;8.976;2023-07-30T03:57:16;2.50;;;2.10;;
15936;SDS011;9163;48.818;8.976;2023-07-30T03:59:43;2.70;;;2.10;;
15936;SDS011;9163;48.818;8.976;2023-07-30T04:02:11;4.70;;;2.53;;
15936;SDS011;9163;48.818;8.976;2023-07-30T04:04:41;2.33;;;2.00;;
15936;SDS011;9163;48.818;8.976;2023-07-30T04:07:09;2.37;;;2.00;;
15936;SDS011;9163;48.818;8.976;2023-07-30T04:09:36;2.43;;;1.90;;
15936;SDS011;9163;48.818;8.976;2023-07-30T04:12:05;2.27;;;2.07;;
15936;SDS011;9163;48.818;8.976;2023-07-30T04:14:32;2.80;;;1.90;;
15936;SDS011;9163;48.818;8.976;2023-07-30T04:16:59;2.23;;;2.03;;
15936;SDS011;9163;48.818;8.976;2023-07-30T04:19:27;3.30;;;2.33;;
15936;SDS011;9163;48.818;8.976;2023-07-30T04:21:54;3.30;;;2.10;;
15936;SDS011;9163;48.818;8.976;2023-07-30T04:24:21;2.33;;;2.13;;
15936;SDS011;9163;48.818;8.976;2023-07-30T04:26:48;2.43;;;2.10;;
15936;SDS011;9163;48.818;8.976;2023-07-30T04:29:28;3.47;;;2.60;;
15936;SDS011;9163;48.818;8.976;2023-07-30T04:31:56;3.77;;;2.10;;
15936;SDS011;9163;48.818;8.976;2023-07-30T04:34:23;2.93;;;2.17;;
15936;SDS011;9163;48.818;8.976;2023-07-30T04:36:50;3.70;;;2.20;;
15936;SDS011;9163;48.818;8.976;2023-07-30T04:39:17;3.97;;;2.37;;
15936;SDS011;9163;48.818;8.976;2023-07-30T04:41:44;2.63;;;2.27;;
15936;SDS011;9163;48.818;8.976;2023-07-30T04:44:12;3.47;;;1.80;;
15936;SDS011;9163;48.818;8.976;2023-07-30T04:46:40;3.20;;;1.90;;
15936;SDS011;9163;48.818;8.976;2023-07-30T04:49:07;3.50;;;2.20;;
15936;SDS011;9163;48.818;8.976;2023-07-30T04:51:35;2.90;;;1.80;;
15936;SDS011;9163;48.818;8.976;2023-07-30T04:54:03;3.93;;;1.90;;
15936;SDS011;9163;48.818;8.976;2023-07-30T04:56:31;2.97;;;2.10;;
15936;SDS011;9163;48.818;8.976;2023-07-30T04:58:58;2.63;;;1.97;;
15936;SDS011;9163;48.818;8.976;2023-07-30T05:01:25;2.63;;;1.93;;
15936;SDS011;9163;48.818;8.976;2023-07-30T05:03:54;2.83;;;2.17;;
15936;SDS011;9163;48.818;8.976;2023-07-30T05:06:21;2.57;;;1.87;;
15936;SDS011;9163;48.818;8.976;2023-07-30T05:08:49;1.97;;;1.63;;
15936;SDS011;9163;48.818;8.976;2023-07-30T05:11:16;1.60;;;1.40;;
15936;SDS011;9163;48.818;8.976;2023-07-30T05:13:43;1.73;;;1.47;;
15936;SDS011;9163;48.818;8.976;2023-07-30T05:16:11;3.57;;;1.50;;
15936;SDS011;9163;48.818;8.976;2023-07-30T05:18:38;1.53;;;1.30;;
15936;SDS011;9163;48.818;8.976;2023-07-30T05:21:06;2.07;;;1.40;;
15936;SDS011;9163;48.818;8.976;2023-07-30T05:23:34;2.67;;;1.40;;
15936;SDS011;9163;48.818;8.976;2023-07-30T05:26:01;2.30;;;1.40;;
15936;SDS011;9163;48.818;8.976;2023-07-30T05:28:28;2.00;;;1.40;;
15936;SDS011;9163;48.818;8.976;2023-07-30T05:30:55;2.23;;;1.20;;
15936;SDS011;9163;48.818;8.976;2023-07-30T05:33:22;2.30;;;1.27;;
15936;SDS011;9163;48.818;8.976;2023-07-30T05:35:50;3.23;;;1.60;;
15936;SDS011;9163;48.818;8.976;2023-07-30T05:38:18;2.20;;;1.37;;
15936;SDS011;9163;48.818;8.976;2023-07-30T05:40:46;2.73;;;1.40;;
15936;SDS011;9163;48.818;8.976;2023-07-30T05:43:13;1.50;;;1.20;;
15936;SDS011;9163;48.818;8.976;2023-07-30T05:45:40;1.23;;;1.10;;
15936;SDS011;9163;48.818;8.976;2023-07-30T05:48:08;2.27;;;1.30;;
15936;SDS011;9163;48.818;8.976;2023-07-30T05:50:35;4.43;;;1.57;;
15936;SDS011;9163;48.818;8.976;2023-07-30T05:53:03;1.97;;;1.20;;
15936;SDS011;9163;48.818;8.976;2023-07-30T05:55:31;1.97;;;1.50;;
15936;SDS011;9163;48.818;8.976;2023-07-30T05:57:58;1.60;;;1.20;;
15936;SDS011;9163;48.818;8.976;2023-07-30T06:00:26;2.07;;;1.17;;
15936;SDS011;9163;48.818;8.976;2023-07-30T06:02:53;1.20;;;0.97;;
15936;SDS011;9163;48.818;8.976;2023-07-30T06:05:20;1.23;;;1.13;;
15936;SDS011;9163;48.818;8.976;2023-07-30T06:07:47;2.40;;;1.30;;
15936;SDS011;9163;48.818;8.976;2023-07-30T06:10:15;2.50;;;1.53;;
15936;SDS011;9163;48.818;8.976;2023-07-30T06:12:44;2.37;;;1.60;;
15936;SDS011;9163;48.818;8.976;2023-07-30T06:15:11;2.93;;;1.50;;
15936;SDS011;9163;48.818;8.976;2023-07-30T06:17:38;3.63;;;1.50;;
15936;SDS011;9163;48.818;8.976;2023-07-30T06:20:06;2.10;;;1.53;;
15936;SDS011;9163;48.818;8.976;2023-07-30T06:22:34;2.70;;;1.50;;
15936;SDS011;9163;48.818;8.976;2023-07-30T06:25:01;2.67;;;1.70;;
15936;SDS011;9163;48.818;8.976;2023-07-30T06:27:29;2.67;;;1.70;;
15936;SDS011;9163;48.818;8.976;2023-07-30T06:29:58;2.77;;;1.50;;
15936;SDS011;9163;48.818;8.976;2023-07-30T06:32:25;3.57;;;1.80;;
15936;SDS011;9163;48.818;8.976;2023-07-30T06:34:52;2.27;;;2.00;;
15936;SDS011;9163;48.818;8.976;2023-07-30T06:37:19;3.90;;;2.50;;
15936;SDS011;9163;48.818;8.976;2023-07-30T06:39:47;4.20;;;2.60;;
15936;SDS011;9163;48.818;8.976;2023-07-30T06:42:14;3.77;;;2.40;;
15936;SDS011;9163;48.818;8.976;2023-07-30T06:44:41;3.73;;;2.40;;
15936;SDS011;9163;48.818;8.976;2023-07-30T06:47:10;2.23;;;1.93;;
15936;SDS011;9163;48.818;8.976;2023-07-30T06:49:37;2.90;;;2.30;;
15936;SDS011;9163;48.818;8.976;2023-07-30T06:52:04;3.07;;;2.30;;
15936;SDS011;9163;48.818;8.976;2023-07-30T06:54:32;2.50;;;2.20;;
15936;SDS011;9163;48.818;8.976;2023-07-30T06:56:59;2.10;;;1.90;;
15936;SDS011;9163;48.818;8.976;2023-07-30T06:59:27;2.33;;;2.03;;
15936;SDS011;9163;48.818;8.976;2023-07-30T07:01:54;2.57;;;2.03;;
15936;SDS011;9163;48.818;8.976;2023-07-30T07:04:23;2.10;;;1.90;;
15936;SDS011;9163;48.818;8.976;2023-07-30T07:06:50;3.97;;;1.93;;
15936;SDS011;9163;48.818;8.976;2023-07-30T07:09:17;3.27;;;2.23;;
15936;SDS011;9163;48.818;8.976;2023-07-30T07:11:44;4.10;;;2.00;;
15936;SDS011;9163;48.818;8.976;2023-07-30T07:14:12;3.93;;;1.93;;
15936;SDS011;9163;48.818;8.976;2023-07-30T07:16:39;3.10;;;1.80;;
15936;SDS011;9163;48.818;8.976;2023-07-30T07:19:06;1.70;;;1.60;;
15936;SDS011;9163;48.818;8.976;2023-07-30T07:21:35;1.80;;;1.60;;
15936;SDS011;9163;48.818;8.976;2023-07-30T07:24:03;1.77;;;1.37;;
15936;SDS011;9163;48.818;8.976;2023-07-30T07:26:30;1.57;;;1.43;;
15936;SDS011;9163;48.818;8.976;2023-07-30T07:28:57;3.50;;;1.60;;
15936;SDS011;9163;48.818;8.976;2023-07-30T07:31:24;3.20;;;1.60;;
15936;SDS011;9163;48.818;8.976;2023-07-30T07:33:52;2.77;;;1.73;;
15936;SDS011;9163;48.818;8.976;2023-07-30T07:36:20;2.23;;;1.70;;
15936;SDS011;9163;48.818;8.976;2023-07-30T07:38:48;1.70;;;1.53;;
15936;SDS011;9163;48.818;8.976;2023-07-30T07:41:16;2.30;;;2.10;;
15936;SDS011;9163;48.818;8.976;2023-07-30T07:43:43;2.93;;;1.97;;
15936;SDS011;9163;48.818;8.976;2023-07-30T07:46:11;2.43;;;1.90;;
15936;SDS011;9163;48.818;8.976;2023-07-30T07:48:40;2.20;;;1.63;;
15936;SDS011;9163;48.818;8.976;2023-07-30T07:51:08;2.20;;;1.47;;
15936;SDS011;9163;48.818;8.976;2023-07-30T07:53:36;1.50;;;1.40;;
15936;SDS011;9163;48.818;8.976;2023-07-30T07:56:04;1.83;;;1.30;;
15936;SDS011;9163;48.818;8.976;2023-07-30T07:58:32;1.70;;;1.40;;
15936;SDS011;9163;48.818;8.976;2023-07-30T08:01:01;1.83;;;1.37;;
15936;SDS011;9163;48.818;8.976;2023-07-30T08:03:28;2.07;;;1.53;;
15936;SDS011;9163;48.818;8.976;2023-07-30T08:05:55;1.43;;;1.33;;
15936;SDS011;9163;48.818;8.976;2023-07-30T08:08:24;2.53;;;1.50;;
15936;SDS011;9163;48.818;8.976;2023-07-30T08:10:52;1.93;;;1.67;;
15936;SDS011;9163;48.818;8.976;2023-07-30T08:13:20;4.07;;;1.60;;
15936;SDS011;9163;48.818;8.976;2023-07-30T08:15:48;1.97;;;1.50;;
15936;SDS011;9163;48.818;8.976;2023-07-30T08:18:15;1.67;;;1.47;;
15936;SDS011;9163;48.818;8.976;2023-07-30T08:20:42;2.30;;;2.10;;
15936;SDS011;9163;48.818;8.976;2023-07-30T08:23:10;2.00;;;1.60;;
15936;SDS011;9163;48.818;8.976;2023-07-30T08:25:37;2.13;;;1.30;;
15936;SDS011;9163;48.818;8.976;2023-07-30T08:28:04;2.63;;;1.50;;
15936;SDS011;9163;48.818;8.976;2023-07-30T08:30:33;2.37;;;1.33;;
15936;SDS011;9163;48.818;8.976;2023-07-30T08:33:00;1.73;;;1.20;;
15936;SDS011;9163;48.818;8.976;2023-07-30T08:35:28;2.73;;;1.40;;
15936;SDS011;9163;48.818;8.976;2023-07-30T08:37:55;3.73;;;1.47;;
15936;SDS011;9163;48.818;8.976;2023-07-30T08:40:22;2.80;;;1.80;;
15936;SDS011;9163;48.818;8.976;2023-07-30T08:42:50;2.40;;;1.57;;
15936;SDS011;9163;48.818;8.976;2023-07-30T08:45:18;3.00;;;1.40;;
15936;SDS011;9163;48.818;8.976;2023-07-30T08:47:47;2.97;;;1.50;;
15936;SDS011;9163;48.818;8.976;2023-07-30T08:50:14;1.60;;;1.50;;
15936;SDS011;9163;48.818;8.976;2023-07-30T08:52:41;2.30;;;1.50;;
15936;SDS011;9163;48.818;8.976;2023-07-30T08:55:10;2.77;;;1.67;;
15936;SDS011;9163;48.818;8.976;2023-07-30T08:57:37;1.57;;;1.47;;
15936;SDS011;9163;48.818;8.976;2023-07-30T09:00:08;2.27;;;1.50;;
15936;SDS011;9163;48.818;8.976;2023-07-30T09:02:37;1.90;;;1.50;;
15936;SDS011;9163;48.818;8.976;2023-07-30T09:05:07;2.20;;;1.47;;
15936;SDS011;9163;48.818;8.976;2023-07-30T09:07:35;2.00;;;1.63;;
15936;SDS011;9163;48.818;8.976;2023-07-30T09:10:02;2.13;;;1.50;;
15936;SDS011;9163;48.818;8.976;2023-07-30T09:12:30;3.87;;;1.90;;
15936;SDS011;9163;48.818;8.976;2023-07-30T09:14:58;1.83;;;1.57;;
15936;SDS011;9163;48.818;8.976;2023-07-30T09:17:25;2.50;;;1.87;;
15936;SDS011;9163;48.818;8.976;2023-07-30T09:19:53;2.23;;;1.70;;
15936;SDS011;9163;48.818;8.976;2023-07-30T09:22:25;2.30;;;1.40;;
15936;SDS011;9163;48.818;8.976;2023-07-30T09:24:53;3.20;;;1.70;;
15936;SDS011;9163;48.818;8.976;2023-07-30T09:27:21;1.83;;;1.53;;
15936;SDS011;9163;48.818;8.976;2023-07-30T09:29:51;2.73;;;1.80;;
15936;SDS011;9163;48.818;8.976;2023-07-30T09:32:19;1.83;;;1.60;;
15936;SDS011;9163;48.818;8.976;2023-07-30T09:34:47;3.10;;;1.70;;
15936;SDS011;9163;48.818;8.976;2023-07-30T09:37:14;3.00;;;1.60;;
15936;SDS011;9163;48.818;8.976;2023-07-30T09:39:43;2.20;;;1.70;;
15936;SDS011;9163;48.818;8.976;2023-07-30T09:42:13;1.93;;;1.73;;
15936;SDS011;9163;48.818;8.976;2023-07-30T09:44:40;2.20;;;1.60;;
15936;SDS011;9163;48.818;8.976;2023-07-30T09:47:08;4.50;;;1.80;;
15936;SDS011;9163;48.818;8.976;2023-07-30T09:49:36;2.43;;;1.70;;
15936;SDS011;9163;48.818;8.976;2023-07-30T09:52:04;2.90;;;1.90;;
15936;SDS011;9163;48.818;8.976;2023-07-30T09:54:32;3.03;;;1.77;;
15936;SDS011;9163;48.818;8.976;2023-07-30T09:57:01;3.00;;;1.80;;
15936;SDS011;9163;48.818;8.976;2023-07-30T09:59:29;2.27;;;1.90;;
15936;SDS011;9163;48.818;8.976;2023-07-30T10:01:56;1.90;;;1.70;;
15936;SDS011;9163;48.818;8.976;2023-07-30T10:04:24;2.70;;;2.03;;
15936;SDS011;9163;48.818;8.976;2023-07-30T10:06:55;3.40;;;2.17;;
15936;SDS011;9163;48.818;8.976;2023-07-30T10:09:25;2.30;;;1.90;;
15936;SDS011;9163;48.818;8.976;2023-07-30T10:11:57;2.90;;;1.87;;
15936;SDS011;9163;48.818;8.976;2023-07-30T10:14:27;2.20;;;1.73;;
15936;SDS011;9163;48.818;8.976;2023-07-30T10:17:00;3.67;;;1.93;;
15936;SDS011;9163;48.818;8.976;2023-07-30T10:19:28;2.23;;;1.80;;
15936;SDS011;9163;48.818;8.976;2023-07-30T10:21:58;3.20;;;1.70;;
15936;SDS011;9163;48.818;8.976;2023-07-30T10:24:55;3.10;;;1.80;;
15936;SDS011;9163;48.818;8.976;2023-07-30T10:27:23;2.87;;;1.90;;
15936;SDS011;9163;48.818;8.976;2023-07-30T10:30:07;3.50;;;1.70;;
15936;SDS011;9163;48.818;8.976;2023-07-30T10:32:37;3.30;;;1.90;;
15936;SDS011;9163;48.818;8.976;2023-07-30T10:35:05;2.83;;;1.80;;
15936;SDS011;9163;48.818;8.976;2023-07-30T10:37:33;2.57;;;1.87;;
15936;SDS011;9163;48.818;8.976;2023-07-30T10:40:01;3.60;;;1.90;;
15936;SDS011;9163;48.818;8.976;2023-07-30T10:42:43;1.97;;;1.53;;
15936;SDS011;9163;48.818;8.976;2023-07-30T10:45:11;2.10;;;1.60;;
15936;SDS011;9163;48.818;8.976;2023-07-30T10:47:40;2.60;;;1.90;;
15936;SDS011;9163;48.818;8.976;2023-07-30T10:50:08;4.17;;;1.43;;
15936;SDS011;9163;48.818;8.976;2023-07-30T10:52:38;2.73;;;1.63;;
15936;SDS011;9163;48.818;8.976;2023-07-30T10:55:08;2.10;;;1.67;;
15936;SDS011;9163;48.818;8.976;2023-07-30T10:57:36;4.10;;;2.20;;
15936;SDS011;9163;48.818;8.976;2023-07-30T11:00:06;2.47;;;1.70;;
15936;SDS011;9163;48.818;8.976;2023-07-30T11:02:34;2.73;;;1.80;;
15936;SDS011;9163;48.818;8.976;2023-07-30T11:05:10;3.27;;;1.80;;
15936;SDS011;9163;48.818;8.976;2023-07-30T11:07:38;3.27;;;1.80;;
15936;SDS011;9163;48.818;8.976;2023-07-30T11:10:06;4.37;;;1.90;;
15936;SDS011;9163;48.818;8.976;2023-07-30T11:12:34;2.30;;;1.80;;
15936;SDS011;9163;48.818;8.976;2023-07-30T11:15:02;4.37;;;1.90;;
15936;SDS011;9163;48.818;8.976;2023-07-30T11:17:30;3.93;;;2.20;;
15936;SDS011;9163;48.818;8.976;2023-07-30T11:19:57;3.70;;;1.83;;
15936;SDS011;9163;48.818;8.976;2023-07-30T11:22:30;2.17;;;1.90;;
15936;SDS011;9163;48.818;8.976;2023-07-30T11:24:58;3.03;;;1.77;;
15936;SDS011;9163;48.818;8.976;2023-07-30T11:27:28;4.27;;;1.70;;
15936;SDS011;9163;48.818;8.976;2023-07-30T11:29:56;3.07;;;1.77;;
15936;SDS011;9163;48.818;8.976;2023-07-30T11:32:24;3.30;;;1.70;;
15936;SDS011;9163;48.818;8.976;2023-07-30T11:34:55;2.60;;;1.70;;
15936;SDS011;9163;48.818;8.976;2023-07-30T11:37:22;2.07;;;1.40;;
15936;SDS011;9163;48.818;8.976;2023-07-30T11:39:50;6.90;;;1.77;;
15936;SDS011;9163;48.818;8.976;2023-07-30T11:42:19;3.87;;;1.73;;
15936;SDS011;9163;48.818;8.976;2023-07-30T11:44:48;2.73;;;1.70;;
15936;SDS011;9163;48.818;8.976;2023-07-30T11:47:20;1.30;;;1.20;;
15936;SDS011;9163;48.818;8.976;2023-07-30T11:49:54;2.63;;;1.80;;
15936;SDS011;9163;48.818;8.976;2023-07-30T11:52:22;2.83;;;1.97;;
15936;SDS011;9163;48.818;8.976;2023-07-30T11:54:59;2.53;;;1.70;;
15936;SDS011;9163;48.818;8.976;2023-07-30T11:57:32;4.07;;;1.70;;
15936;SDS011;9163;48.818;8.976;2023-07-30T12:00:02;4.17;;;1.60;;
15936;SDS011;9163;48.818;8.976;2023-07-30T12:02:29;2.80;;;1.70;;
15936;SDS011;9163;48.818;8.976;2023-07-30T12:04:57;2.40;;;1.50;;
15936;SDS011;9163;48.818;8.976;2023-07-30T12:07:24;2.43;;;1.60;;
15936;SDS011;9163;48.818;8.976;2023-07-30T12:09:52;2.90;;;1.83;;
15936;SDS011;9163;48.818;8.976;2023-07-30T12:12:19;1.87;;;1.50;;
15936;SDS011;9163;48.818;8.976;2023-07-30T12:14:52;2.33;;;1.43;;
15936;SDS011;9163;48.818;8.976;2023-07-30T12:17:22;3.47;;;1.53;;
15936;SDS011;9163;48.818;8.976;2023-07-30T12:19:50;2.93;;;1.50;;
15936;SDS011;9163;48.818;8.976;2023-07-30T12:22:17;3.87;;;1.53;;
15936;SDS011;9163;48.818;8.976;2023-07-30T12:24:44;2.10;;;1.53;;
15936;SDS011;9163;48.818;8.976;2023-07-30T12:27:11;3.83;;;1.67;;
15936;SDS011;9163;48.818;8.976;2023-07-30T12:29:39;2.43;;;1.67;;
15936;SDS011;9163;48.818;8.976;2023-07-30T12:32:06;2.60;;;1.60;;
15936;SDS011;9163;48.818;8.976;2023-07-30T12:34:35;3.30;;;1.73;;
15936;SDS011;9163;48.818;8.976;2023-07-30T12:37:02;3.27;;;1.40;;
15936;SDS011;9163;48.818;8.976;2023-07-30T12:39:30;3.10;;;1.60;;
15936;SDS011;9163;48.818;8.976;2023-07-30T12:41:57;2.53;;;1.50;;
15936;SDS011;9163;48.818;8.976;2023-07-30T12:44:24;3.00;;;1.50;;
15936;SDS011;9163;48.818;8.976;2023-07-30T12:46:51;4.72;;;1.70;;
15936;SDS011;9163;48.818;8.976;2023-07-30T12:49:18;2.63;;;1.50;;
15936;SDS011;9163;48.818;8.976;2023-07-30T12:51:47;1.97;;;1.70;;
15936;SDS011;9163;48.818;8.976;2023-07-30T12:54:14;2.93;;;1.40;;
15936;SDS011;9163;48.818;8.976;2023-07-30T12:56:42;3.78;;;1.80;;
15936;SDS011;9163;48.818;8.976;2023-07-30T12:59:09;2.47;;;1.70;;
15936;SDS011;9163;48.818;8.976;2023-07-30T13:01:36;3.93;;;1.60;;
15936;SDS011;9163;48.818;8.976;2023-07-30T13:04:04;2.30;;;1.50;;
15936;SDS011;9163;48.818;8.976;2023-07-30T13:06:31;3.50;;;1.70;;
15936;SDS011;9163;48.818;8.976;2023-07-30T13:09:00;2.53;;;1.30;;
15936;SDS011;9163;48.818;8.976;2023-07-30T13:11:27;2.63;;;1.30;;
15936;SDS011;9163;48.818;8.976;2023-07-30T13:13:54;2.13;;;1.20;;
15936;SDS011;9163;48.818;8.976;2023-07-30T13:16:21;2.90;;;1.37;;
15936;SDS011;9163;48.818;8.976;2023-07-30T13:18:48;2.50;;;1.20;;
15936;SDS011;9163;48.818;8.976;2023-07-30T13:21:17;2.67;;;1.50;;
15936;SDS011;9163;48.818;8.976;2023-07-30T13:23:45;2.53;;;1.80;;
15936;SDS011;9163;48.818;8.976;2023-07-30T13:26:13;3.67;;;1.60;;
15936;SDS011;9163;48.818;8.976;2023-07-30T13:28:41;2.90;;;1.70;;
15936;SDS011;9163;48.818;8.976;2023-07-30T13:31:11;7.77;;;2.23;;
15936;SDS011;9163;48.818;8.976;2023-07-30T13:33:39;2.87;;;1.73;;
15936;SDS011;9163;48.818;8.976;2023-07-30T13:36:06;2.87;;;2.10;;
15936;SDS011;9163;48.818;8.976;2023-07-30T13:38:34;2.80;;;1.80;;
15936;SDS011;9163;48.818;8.976;2023-07-30T13:41:01;2.90;;;1.60;;
15936;SDS011;9163;48.818;8.976;2023-07-30T13:43:30;2.93;;;1.63;;
15936;SDS011;9163;48.818;8.976;2023-07-30T13:45:57;3.33;;;1.40;;
15936;SDS011;9163;48.818;8.976;2023-07-30T13:48:24;2.83;;;1.50;;
15936;SDS011;9163;48.818;8.976;2023-07-30T13:50:52;2.97;;;1.47;;
15936;SDS011;9163;48.818;8.976;2023-07-30T13:53:20;2.43;;;1.50;;
15936;SDS011;9163;48.818;8.976;2023-07-30T13:55:47;3.13;;;1.80;;
15936;SDS011;9163;48.818;8.976;2023-07-30T13:58:14;1.70;;;1.27;;
15936;SDS011;9163;48.818;8.976;2023-07-30T14:00:43;4.83;;;1.57;;
15936;SDS011;9163;48.818;8.976;2023-07-30T14:03:10;2.57;;;1.20;;
15936;SDS011;9163;48.818;8.976;2023-07-30T14:05:38;3.53;;;1.33;;
15936;SDS011;9163;48.818;8.976;2023-07-30T14:08:05;2.93;;;1.60;;
15936;SDS011;9163;48.818;8.976;2023-07-30T14:10:33;3.50;;;1.40;;
15936;SDS011;9163;48.818;8.976;2023-07-30T14:13:00;3.27;;;1.60;;
15936;SDS011;9163;48.818;8.976;2023-07-30T14:15:27;2.87;;;1.43;;
15936;SDS011;9163;48.818;8.976;2023-07-30T14:17:56;3.50;;;1.53;;
15936;SDS011;9163;48.818;8.976;2023-07-30T14:20:23;3.47;;;1.47;;
15936;SDS011;9163;48.818;8.976;2023-07-30T14:22:50;4.37;;;1.60;;
15936;SDS011;9163;48.818;8.976;2023-07-30T14:25:19;3.90;;;1.40;;
15936;SDS011;9163;48.818;8.976;2023-07-30T14:27:46;4.37;;;1.33;;
15936;SDS011;9163;48.818;8.976;2023-07-30T14:30:14;2.83;;;1.20;;
15936;SDS011;9163;48.818;8.976;2023-07-30T14:32:41;5.40;;;1.70;;
15936;SDS011;9163;48.818;8.976;2023-07-30T14:35:10;4.43;;;1.87;;
15936;SDS011;9163;48.818;8.976;2023-07-30T14:37:37;3.50;;;1.37;;
15936;SDS011;9163;48.818;8.976;2023-07-30T14:40:05;3.13;;;1.40;;
15936;SDS011;9163;48.818;8.976;2023-07-30T14:42:33;7.70;;;1.47;;
15936;SDS011;9163;48.818;8.976;2023-07-30T14:45:00;3.77;;;1.27;;
15936;SDS011;9163;48.818;8.976;2023-07-30T14:47:27;3.77;;;1.20;;
15936;SDS011;9163;48.818;8.976;2023-07-30T14:49:54;2.77;;;1.17;;
15936;SDS011;9163;48.818;8.976;2023-07-30T14:52:23;2.47;;;1.33;;
15936;SDS011;9163;48.818;8.976;2023-07-30T14:54:51;4.67;;;1.30;;
15936;SDS011;9163;48.818;8.976;2023-07-30T14:57:18;3.13;;;1.17;;
15936;SDS011;9163;48.818;8.976;2023-07-30T14:59:46;2.73;;;1.20;;
15936;SDS011;9163;48.818;8.976;2023-07-30T15:02:13;3.67;;;1.40;;
15936;SDS011;9163;48.818;8.976;2023-07-30T15:04:40;4.73;;;1.50;;